Sir Henry — DYIL — position and weather

sailwx.info

Track history (hours):
 
Tides and Currents Weather Stations Pressure Air Temp Water Temp Dewpoint Dewpoint Depression Visibility Wind Speed Wind Dir Waves Ship Positions

Sir Henry

Last reported at 2014-Sep-02 07:06 UTC. Time now 2014-Sep-19 13:52 UTC.
Position N 37°56' W 031°32'.
Warning: this ship's position is 17 days out of date.

Length 148 m; draft 6.3 m.

Type: Cargo ship. MMSI: 548718000.

Date/timePositionNaut miles runAvg speedWind from/ knotsBaromVisibWave heightAir tempDewpointWater temp
2014-Sep-02 07:06N 37°56' W 031°32'2111.4
2014-Sep-02 05:17N 38°07' W 031°10'3411.3
2014-Sep-02 02:19N 38°24' W 030°33'911.2
2014-Sep-02 01:33N 38°29' W 030°24'1110.9
2014-Sep-02 00:33N 38°34' W 030°12'1111.2
2014-Sep-01 23:33N 38°40' W 029°60'1111.2
2014-Sep-01 22:33N 38°46' W 029°48'1111.1
2014-Sep-01 21:33N 38°52' W 029°35'1110.7
2014-Sep-01 20:33N 38°57' W 029°24'1111.0
2014-Sep-01 19:33N 39°03' W 029°12'1111.4
2014-Sep-01 18:33N 39°08' W 028°59'1111.0
2014-Sep-01 17:33N 39°13' W 028°46'1110.9
2014-Sep-01 16:34N 39°18' W 028°34'1110.9
2014-Sep-01 15:33N 39°23' W 028°21'1110.8
2014-Sep-01 14:33N 39°28' W 028°09'1111.0
2014-Sep-01 13:33N 39°34' W 027°57'1110.8
2014-Sep-01 12:33N 39°39' W 027°44'1111.2
2014-Sep-01 11:32N 39°44' W 027°31'1110.9
2014-Sep-01 10:33N 39°50' W 027°19'  
2014-Aug-27 05:31N 49°41' W 000°37'1212.6
2014-Aug-27 04:33N 49°34' W 000°21'1312.6
2014-Aug-27 03:33N 49°29' W 000°04'1111.4
2014-Aug-27 02:33N 49°26' E 000°13'1211.8
2014-Aug-27 01:31N 49°29' E 000°31'  
2014-Aug-24 19:32N 49°26' E 000°38'9 9.6
2014-Aug-24 18:33N 49°27' E 000°23'1212.3
2014-Aug-24 17:33N 49°26' E 000°04'8 7.6
2014-Aug-24 16:33N 49°29' W 000°07'8 7.6
2014-Aug-24 15:33N 49°35' W 000°14'4611.1
2014-Aug-24 11:26N 50°14' E 000°21'1111.9
2014-Aug-24 10:33N 50°22' E 000°32'1211.6
2014-Aug-24 09:33N 50°33' E 000°35'1111.0
2014-Aug-24 08:33N 50°41' E 000°47'1111.4
2014-Aug-24 07:33N 50°49' E 000°60'1312.8
2014-Aug-24 06:33N 50°58' E 001°15'1414.2
2014-Aug-24 05:33N 51°07' E 001°32'1313.2
2014-Aug-24 04:34N 51°16' E 001°48'1211.5
2014-Aug-24 03:33N 51°25' E 001°59'1211.3
2014-Aug-24 02:28N 51°21' E 002°17'1010.4
2014-Aug-24 01:31N 51°23' E 002°33'1010.2
2014-Aug-24 00:33N 51°22' E 002°48'11 9.9
2014-Aug-23 23:29N 51°24' E 003°05'9 9.3
2014-Aug-23 22:32N 51°25' E 003°19'9 9.6
2014-Aug-23 21:33N 51°26' E 003°34'7 6.8
2014-Aug-23 20:34N 51°24' E 003°44'0 0.5
2014-Aug-23 19:34N 51°24' E 003°45'  
Track history (hours):
 
Tides and Currents Weather Stations Pressure Air Temp Water Temp Dewpoint Dewpoint Depression Visibility Wind Speed Wind Dir Waves Ship Positions

Sir Henry

Last reported at 2014-Sep-02 07:06 UTC. Time now 2014-Sep-19 13:52 UTC.
Position N 37°56' W 031°32'.
Warning: this ship's position is 17 days out of date.

Length 148 m; draft 6.3 m.

Type: Cargo ship. MMSI: 548718000.

Date/timePositionNaut miles runAvg speedWind from/ knotsBaromVisibWave heightAir tempDewpointWater temp
2014-Sep-02 07:06N 37°56' W 031°32'2111.4
2014-Sep-02 05:17N 38°07' W 031°10'3411.3
2014-Sep-02 02:19N 38°24' W 030°33'911.2
2014-Sep-02 01:33N 38°29' W 030°24'1110.9
2014-Sep-02 00:33N 38°34' W 030°12'1111.2
2014-Sep-01 23:33N 38°40' W 029°60'1111.2
2014-Sep-01 22:33N 38°46' W 029°48'1111.1
2014-Sep-01 21:33N 38°52' W 029°35'1110.7
2014-Sep-01 20:33N 38°57' W 029°24'1111.0
2014-Sep-01 19:33N 39°03' W 029°12'1111.4
2014-Sep-01 18:33N 39°08' W 028°59'1111.0
2014-Sep-01 17:33N 39°13' W 028°46'1110.9
2014-Sep-01 16:34N 39°18' W 028°34'1110.9
2014-Sep-01 15:33N 39°23' W 028°21'1110.8
2014-Sep-01 14:33N 39°28' W 028°09'1111.0
2014-Sep-01 13:33N 39°34' W 027°57'1110.8
2014-Sep-01 12:33N 39°39' W 027°44'1111.2
2014-Sep-01 11:32N 39°44' W 027°31'1110.9
2014-Sep-01 10:33N 39°50' W 027°19'  
2014-Aug-27 05:31N 49°41' W 000°37'1212.6
2014-Aug-27 04:33N 49°34' W 000°21'1312.6
2014-Aug-27 03:33N 49°29' W 000°04'1111.4
2014-Aug-27 02:33N 49°26' E 000°13'1211.8
2014-Aug-27 01:31N 49°29' E 000°31'  
2014-Aug-24 19:32N 49°26' E 000°38'9 9.6
2014-Aug-24 18:33N 49°27' E 000°23'1212.3
2014-Aug-24 17:33N 49°26' E 000°04'8 7.6
2014-Aug-24 16:33N 49°29' W 000°07'8 7.6
2014-Aug-24 15:33N 49°35' W 000°14'4611.1
2014-Aug-24 11:26N 50°14' E 000°21'1111.9
2014-Aug-24 10:33N 50°22' E 000°32'1211.6
2014-Aug-24 09:33N 50°33' E 000°35'1111.0
2014-Aug-24 08:33N 50°41' E 000°47'1111.4
2014-Aug-24 07:33N 50°49' E 000°60'1312.8
2014-Aug-24 06:33N 50°58' E 001°15'1414.2
2014-Aug-24 05:33N 51°07' E 001°32'1313.2
2014-Aug-24 04:34N 51°16' E 001°48'1211.5
2014-Aug-24 03:33N 51°25' E 001°59'1211.3
2014-Aug-24 02:28N 51°21' E 002°17'1010.4
2014-Aug-24 01:31N 51°23' E 002°33'1010.2
2014-Aug-24 00:33N 51°22' E 002°48'11 9.9
2014-Aug-23 23:29N 51°24' E 003°05'9 9.3
2014-Aug-23 22:32N 51°25' E 003°19'9 9.6
2014-Aug-23 21:33N 51°26' E 003°34'7 6.8
2014-Aug-23 20:34N 51°24' E 003°44'0 0.5
2014-Aug-23 19:34N 51°24' E 003°45'  

Dump ship's entire track history